Time;durP1;ratioP1;P1;durP2;ratioP2;P2;SDS_P1;SDS_P2;PMS_P1;PMS_P2;Temp;Humidity;BMP_temperature;BMP_pressure;BME280_temperature;BME280_humidity;BME280_pressure;Samples;Min_cycle;Max_cycle;Signal;HPM_P1;HPM_P2
2023/05/09 00:01:17;;;;;;;1.90;1.50;;;18.70;56.10;;;;;;5053211;28;20191;-69
2023/05/09 00:03:43;;;;;;;4.23;1.87;;;18.80;55.60;;;;;;5050122;28;20242;-69
2023/05/09 00:06:10;;;;;;;3.80;1.70;;;18.80;56.30;;;;;;5051873;28;20211;-69
2023/05/09 00:08:36;;;;;;;18.57;2.00;;;18.70;56.70;;;;;;5052941;28;20641;-69
2023/05/09 00:11:02;;;;;;;21.20;1.60;;;18.70;56.00;;;;;;5052300;28;20471;-69
2023/05/09 00:13:28;;;;;;;20.27;1.80;;;18.50;56.50;;;;;;5046898;28;20929;-69
2023/05/09 00:15:53;;;;;;;18.80;2.30;;;18.60;56.60;;;;;;5052886;28;20256;-69
2023/05/09 00:18:20;;;;;;;17.63;1.80;;;18.50;56.50;;;;;;5052687;28;20180;-69
2023/05/09 00:20:47;;;;;;;17.30;1.67;;;18.60;55.80;;;;;;5052122;28;20211;-69
2023/05/09 00:23:12;;;;;;;17.20;1.67;;;18.60;56.60;;;;;;5044879;28;20435;-69
2023/05/09 00:25:38;;;;;;;17.70;1.70;;;18.60;56.60;;;;;;5051434;28;21005;-69
2023/05/09 00:28:04;;;;;;;17.00;1.73;;;18.70;55.40;;;;;;5052507;28;20475;-69
2023/05/09 00:30:30;;;;;;;17.77;2.00;;;18.80;55.20;;;;;;5052593;28;20208;-69
2023/05/09 00:32:56;;;;;;;17.43;1.80;;;18.70;56.60;;;;;;5052007;28;20172;-69
2023/05/09 00:35:21;;;;;;;22.97;1.73;;;18.60;56.60;;;;;;5044349;28;20898;-69
2023/05/09 00:37:47;;;;;;;31.50;4.13;;;18.50;56.90;;;;;;5049498;28;20180;-69
2023/05/09 00:40:13;;;;;;;28.90;1.97;;;18.50;57.30;;;;;;5052237;28;20190;-69
2023/05/09 00:42:38;;;;;;;31.80;2.10;;;18.60;56.60;;;;;;5051993;28;20265;-69
2023/05/09 00:45:05;;;;;;;44.67;2.67;;;18.60;56.60;;;;;;5046588;28;20474;-69
2023/05/09 00:47:32;;;;;;;46.90;2.03;;;18.60;55.80;;;;;;5048001;28;20189;-69
2023/05/09 00:49:58;;;;;;;46.50;1.83;;;18.60;55.70;;;;;;5040545;28;20539;-69
2023/05/09 00:52:25;;;;;;;46.40;2.00;;;18.60;55.30;;;;;;5041927;28;20447;-69
2023/05/09 00:54:52;;;;;;;45.07;1.70;;;18.60;55.60;;;;;;5051263;28;20422;-69
2023/05/09 00:57:17;;;;;;;44.30;2.00;;;18.40;56.40;;;;;;5041339;28;20837;-69
2023/05/09 00:59:43;;;;;;;45.37;2.60;;;18.50;55.30;;;;;;5051262;28;20434;-69
2023/05/09 01:02:09;;;;;;;43.27;1.90;;;18.50;55.60;;;;;;5050029;28;20264;-69
2023/05/09 01:04:35;;;;;;;48.80;2.57;;;18.50;55.30;;;;;;5051340;28;20177;-69
2023/05/09 01:07:08;;;;;;;44.57;2.00;;;18.50;55.60;;;;;;5044889;28;20822;-69
2023/05/09 01:09:49;;;;;;;49.53;2.40;;;18.50;56.00;;;;;;5048753;28;20249;-69
2023/05/09 01:12:32;;;;;;;46.37;1.90;;;18.50;55.80;;;;;;5046237;28;20974;-69
2023/05/09 01:15:16;;;;;;;48.83;2.10;;;18.50;55.30;;;;;;5051997;28;20856;-69
2023/05/09 01:18:05;;;;;;;47.73;1.80;;;18.30;56.30;;;;;;5046802;28;20933;-69
2023/05/09 01:20:55;;;;;;;48.40;2.40;;;18.20;57.30;;;;;;5042730;28;20435;-69
2023/05/09 01:23:46;;;;;;;47.37;1.77;;;18.20;56.20;;;;;;5040135;28;20812;-69
2023/05/09 01:26:11;;;;;;;47.20;2.53;;;18.20;56.20;;;;;;5051812;28;20445;-69
2023/05/09 01:28:55;;;;;;;44.90;2.00;;;18.10;56.90;;;;;;5046037;28;20446;-69
2023/05/09 01:31:21;;;;;;;48.63;2.83;;;18.10;56.90;;;;;;5049277;28;20214;-69
2023/05/09 01:33:57;;;;;;;48.27;2.33;;;18.10;56.10;;;;;;5044662;28;20537;-69
2023/05/09 01:36:28;;;;;;;46.80;1.93;;;18.10;56.10;;;;;;5041796;28;20500;-69
2023/05/09 01:38:55;;;;;;;47.70;2.40;;;18.00;56.00;;;;;;5051606;28;20430;-69
2023/05/09 01:41:23;;;;;;;47.80;2.17;;;18.00;56.20;;;;;;5051258;28;20410;-69
2023/05/09 01:43:50;;;;;;;46.30;2.00;;;18.00;57.60;;;;;;5050651;28;20520;-69
2023/05/09 01:46:18;;;;;;;44.73;2.30;;;18.00;57.30;;;;;;5048223;28;20433;-69
2023/05/09 01:48:44;;;;;;;45.60;2.00;;;18.00;57.60;;;;;;5042457;28;20430;-69
2023/05/09 01:51:13;;;;;;;42.43;2.57;;;18.00;57.10;;;;;;5048558;28;21705;-69
2023/05/09 01:53:41;;;;;;;40.47;1.93;;;18.10;56.10;;;;;;5048106;28;20716;-69
2023/05/09 01:56:08;;;;;;;41.80;2.03;;;18.10;55.90;;;;;;5051225;28;20930;-69
2023/05/09 01:58:35;;;;;;;41.20;2.10;;;18.00;56.00;;;;;;5041139;28;20510;-69
2023/05/09 02:01:02;;;;;;;44.20;2.53;;;17.90;56.20;;;;;;5050821;28;20506;-69
2023/05/09 02:03:27;;;;;;;44.37;2.20;;;17.90;56.60;;;;;;5035985;28;20444;-69
2023/05/09 02:05:55;;;;;;;43.10;2.37;;;17.80;57.10;;;;;;5050569;28;20497;-69
2023/05/09 02:08:21;;;;;;;41.60;2.00;;;17.90;57.00;;;;;;5043819;28;20601;-69
2023/05/09 02:10:51;;;;;;;41.93;2.30;;;17.90;57.10;;;;;;5050053;28;20466;-69
2023/05/09 02:13:17;;;;;;;41.40;1.97;;;17.80;57.60;;;;;;5048335;28;20474;-69
2023/05/09 02:15:44;;;;;;;40.70;1.90;;;17.60;59.00;;;;;;5050583;28;20475;-69
2023/05/09 02:18:09;;;;;;;40.93;2.07;;;17.70;58.20;;;;;;5049576;28;20194;-69
2023/05/09 02:20:35;;;;;;;41.60;1.80;;;17.80;57.20;;;;;;5049362;28;20920;-69
2023/05/09 02:23:01;;;;;;;44.30;3.10;;;17.90;55.90;;;;;;5047006;28;20239;-69
2023/05/09 02:25:27;;;;;;;42.60;2.47;;;17.80;57.50;;;;;;5050245;28;20715;-69
2023/05/09 02:27:55;;;;;;;42.57;2.17;;;17.70;59.00;;;;;;5050821;28;20422;-69
2023/05/09 02:30:24;;;;;;;40.90;1.80;;;17.80;58.00;;;;;;5046540;28;20252;-69
2023/05/09 02:32:55;;;;;;;41.20;2.17;;;17.80;58.40;;;;;;5049635;28;20445;-69
2023/05/09 02:35:23;;;;;;;40.90;2.20;;;18.00;57.40;;;;;;5047732;28;20474;-69
2023/05/09 02:37:51;;;;;;;40.90;2.37;;;18.00;57.00;;;;;;5053864;28;20491;-69
2023/05/09 02:40:18;;;;;;;43.00;2.30;;;18.00;56.40;;;;;;5048295;28;20444;-69
2023/05/09 02:42:43;;;;;;;42.93;2.13;;;18.00;56.30;;;;;;5049725;28;20450;-69
2023/05/09 02:45:10;;;;;;;42.40;2.20;;;17.80;57.10;;;;;;5047020;28;20463;-69
2023/05/09 02:47:35;;;;;;;42.43;1.63;;;17.80;57.10;;;;;;5053871;28;20181;-69
2023/05/09 02:50:01;;;;;;;43.87;2.43;;;17.90;56.90;;;;;;5055040;28;20978;-69
2023/05/09 02:52:27;;;;;;;41.97;1.80;;;17.90;56.80;;;;;;5045305;28;20457;-69
2023/05/09 02:54:52;;;;;;;41.60;1.80;;;17.80;57.30;;;;;;5052624;28;20226;-69
2023/05/09 02:57:18;;;;;;;41.37;2.00;;;17.80;58.00;;;;;;5053234;28;20186;-69
2023/05/09 02:59:43;;;;;;;41.40;2.10;;;17.80;56.60;;;;;;5054538;28;20322;-69
2023/05/09 03:02:09;;;;;;;43.57;2.87;;;17.80;55.80;;;;;;5048695;28;20212;-69
2023/05/09 03:04:34;;;;;;;47.47;3.23;;;17.80;55.80;;;;;;5051295;28;20566;-69
2023/05/09 03:07:00;;;;;;;40.40;1.80;;;17.90;56.00;;;;;;5047943;28;20225;-69
2023/05/09 03:09:25;;;;;;;42.30;1.80;;;17.90;55.60;;;;;;5054259;28;20234;-69
2023/05/09 03:11:51;;;;;;;42.30;2.10;;;17.80;55.80;;;;;;5049177;28;20554;-69
2023/05/09 03:14:17;;;;;;;42.10;2.00;;;17.80;55.80;;;;;;5048870;28;20189;-69
2023/05/09 03:16:42;;;;;;;41.70;1.87;;;17.80;56.20;;;;;;5050676;28;20251;-69
2023/05/09 03:19:08;;;;;;;42.33;1.87;;;17.50;57.70;;;;;;5046635;28;20172;-69
2023/05/09 03:21:34;;;;;;;42.10;1.90;;;17.60;57.20;;;;;;5052176;28;20181;-69
2023/05/09 03:23:59;;;;;;;41.70;1.70;;;17.60;56.80;;;;;;5050029;28;20234;-69
2023/05/09 03:26:25;;;;;;;43.37;2.50;;;17.60;55.80;;;;;;5053583;28;20196;-69
2023/05/09 03:28:51;;;;;;;41.80;1.83;;;17.60;56.10;;;;;;5050616;28;20199;-69
2023/05/09 03:31:16;;;;;;;43.10;1.90;;;17.30;57.30;;;;;;5052788;28;20215;-69
2023/05/09 03:33:42;;;;;;;42.93;2.30;;;17.30;57.70;;;;;;5051833;28;20180;-69
2023/05/09 03:36:08;;;;;;;41.63;1.83;;;17.20;58.00;;;;;;5052682;28;20317;-69
2023/05/09 03:38:33;;;;;;;46.07;1.87;;;17.00;58.60;;;;;;5044704;28;20265;-69
2023/05/09 03:40:59;;;;;;;39.60;1.63;;;17.00;59.10;;;;;;5045888;28;20518;-69
2023/05/09 03:43:25;;;;;;;40.27;2.07;;;17.10;59.60;;;;;;5052779;28;20184;-69
2023/05/09 03:45:50;;;;;;;38.70;1.70;;;17.30;57.80;;;;;;5052149;28;20193;-69
2023/05/09 03:48:16;;;;;;;37.03;1.60;;;17.20;56.50;;;;;;5052347;28;20441;-69
2023/05/09 03:50:42;;;;;;;38.83;2.60;;;17.10;57.70;;;;;;5039067;28;20208;-69
2023/05/09 03:53:08;;;;;;;38.17;2.10;;;16.90;59.60;;;;;;5047846;28;20183;-69
2023/05/09 03:55:34;;;;;;;37.80;2.70;;;16.80;60.10;;;;;;5053252;28;20193;-69
2023/05/09 03:57:59;;;;;;;37.00;1.87;;;17.00;58.70;;;;;;5053186;28;20433;-69
2023/05/09 04:00:25;;;;;;;39.30;2.23;;;17.10;57.10;;;;;;5049624;28;20184;-69
2023/05/09 04:02:51;;;;;;;44.90;1.60;;;17.20;56.30;;;;;;5049314;28;20187;-69
2023/05/09 04:05:17;;;;;;;43.27;1.70;;;17.20;55.80;;;;;;5053225;28;20210;-69
2023/05/09 04:07:43;;;;;;;44.00;2.80;;;17.20;55.80;;;;;;5053107;28;20437;-69
2023/05/09 04:10:09;;;;;;;43.60;2.03;;;17.10;56.10;;;;;;5053207;28;20283;-70
2023/05/09 04:12:35;;;;;;;43.43;1.80;;;17.00;56.80;;;;;;5043596;28;20542;-69
2023/05/09 04:15:00;;;;;;;41.93;1.77;;;16.90;57.90;;;;;;5052333;28;20425;-69
2023/05/09 04:17:26;;;;;;;42.23;1.70;;;16.80;58.90;;;;;;5052250;28;20180;-69
2023/05/09 04:19:51;;;;;;;42.33;1.90;;;17.00;58.60;;;;;;5052133;28;20234;-69
2023/05/09 04:22:17;;;;;;;41.97;1.60;;;17.10;58.00;;;;;;5038779;28;20184;-69
2023/05/09 04:24:43;;;;;;;41.33;1.80;;;16.90;59.20;;;;;;5049064;28;20840;-70
2023/05/09 04:27:08;;;;;;;43.97;2.57;;;16.80;61.00;;;;;;5049522;28;20212;-69
2023/05/09 04:29:35;;;;;;;41.57;2.37;;;16.40;63.30;;;;;;5052621;28;20176;-69
2023/05/09 04:32:01;;;;;;;40.97;1.80;;;16.30;66.50;;;;;;5046721;28;20184;-69
2023/05/09 04:34:28;;;;;;;42.00;2.37;;;16.50;64.70;;;;;;5044901;28;20436;-69
2023/05/09 04:36:53;;;;;;;41.37;2.07;;;16.00;69.50;;;;;;5052523;28;20537;-69
2023/05/09 04:39:19;;;;;;;41.97;1.97;;;15.40;74.80;;;;;;5045330;28;20540;-69
2023/05/09 04:41:46;;;;;;;48.00;3.13;;;15.40;76.50;;;;;;5052591;28;20609;-69
2023/05/09 04:44:12;;;;;;;40.47;2.33;;;15.80;72.50;;;;;;5045060;28;20270;-69
2023/05/09 04:46:39;;;;;;;42.90;2.30;;;16.00;69.90;;;;;;5049896;28;20472;-69
2023/05/09 04:49:05;;;;;;;40.90;1.73;;;16.50;66.30;;;;;;5045794;28;20435;-70
2023/05/09 04:51:30;;;;;;;40.77;1.63;;;16.40;65.30;;;;;;5032553;28;20466;-69
2023/05/09 04:53:56;;;;;;;39.60;1.77;;;16.60;65.10;;;;;;5049575;28;20433;-69
2023/05/09 04:56:21;;;;;;;43.83;2.50;;;17.00;61.20;;;;;;5051893;28;20211;-69
2023/05/09 04:58:47;;;;;;;40.00;1.63;;;17.30;59.60;;;;;;5051774;28;20183;-69
2023/05/09 05:01:13;;;;;;;40.50;2.03;;;17.50;58.10;;;;;;5053518;23;20698;-71
2023/05/09 05:03:38;;;;;;;40.70;1.77;;;17.40;58.00;;;;;;5012854;28;20184;-72
2023/05/09 05:06:04;;;;;;;41.07;1.77;;;17.50;57.70;;;;;;5031971;28;20230;-71
2023/05/09 05:08:30;;;;;;;41.57;1.80;;;17.50;57.90;;;;;;5030524;28;20185;-72
2023/05/09 05:10:55;;;;;;;42.00;2.10;;;17.50;58.50;;;;;;5018860;28;20286;-72
2023/05/09 05:13:21;;;;;;;39.90;2.00;;;17.40;57.90;;;;;;5013259;28;20204;-71
2023/05/09 05:15:47;;;;;;;41.53;1.70;;;17.50;58.60;;;;;;5012206;28;20263;-72
2023/05/09 05:18:12;;;;;;;41.63;2.03;;;17.40;59.30;;;;;;5012354;28;20173;-72
2023/05/09 05:20:41;;;;;;;40.63;2.10;;;17.60;59.80;;;;;;5013490;28;20722;-72
2023/05/09 05:23:07;;;;;;;38.50;1.90;;;17.70;58.00;;;;;;5011219;28;20833;-70
2023/05/09 05:25:33;;;;;;;38.60;2.07;;;17.80;58.10;;;;;;5012409;28;20499;-73
2023/05/09 05:27:59;;;;;;;37.50;1.73;;;17.90;57.60;;;;;;5013868;28;20496;-71
2023/05/09 05:30:24;;;;;;;38.90;2.10;;;18.20;57.50;;;;;;5011989;28;20291;-71
2023/05/09 05:32:50;;;;;;;38.17;2.30;;;18.50;56.00;;;;;;5012611;28;20195;-71
2023/05/09 05:35:16;;;;;;;37.40;1.80;;;18.50;55.60;;;;;;5012423;28;20224;-70
2023/05/09 05:37:42;;;;;;;37.50;2.10;;;18.60;54.80;;;;;;5012149;28;20179;-71
2023/05/09 05:40:08;;;;;;;39.17;2.27;;;18.60;55.60;;;;;;5012356;28;20264;-71
2023/05/09 05:42:34;;;;;;;39.80;2.50;;;18.70;55.20;;;;;;5012893;28;20494;-77
2023/05/09 05:45:03;;;;;;;39.73;1.90;;;18.80;54.30;;;;;;5008358;28;20436;-70
2023/05/09 05:47:32;;;;;;;40.50;1.90;;;18.70;54.70;;;;;;5013102;28;20467;-70
2023/05/09 05:49:58;;;;;;;40.10;1.70;;;18.90;53.90;;;;;;5012076;28;20947;-72
2023/05/09 05:52:25;;;;;;;39.60;2.27;;;18.90;52.30;;;;;;4993586;28;20532;-70
2023/05/09 05:54:51;;;;;;;39.60;2.00;;;19.00;52.80;;;;;;5009137;28;20436;-71
2023/05/09 05:57:16;;;;;;;41.60;2.60;;;18.60;55.10;;;;;;5008643;28;20420;-71
2023/05/09 05:59:42;;;;;;;38.37;1.80;;;18.70;56.20;;;;;;5011895;28;20171;-72
2023/05/09 06:02:07;;;;;;;46.30;2.30;;;18.90;55.20;;;;;;5012026;28;20544;-70
2023/05/09 06:04:33;;;;;;;45.37;2.10;;;19.20;54.20;;;;;;5011401;28;20262;-71
2023/05/09 06:06:58;;;;;;;126.77;11.13;;;19.40;54.90;;;;;;5012207;28;20179;-71
2023/05/09 06:09:24;;;;;;;46.43;2.77;;;19.50;54.20;;;;;;4993324;28;20391;-71
2023/05/09 06:11:50;;;;;;;40.67;2.70;;;19.20;54.20;;;;;;5011470;28;20230;-74
2023/05/09 06:14:16;;;;;;;38.70;2.63;;;19.00;54.00;;;;;;5011132;28;20415;-71
2023/05/09 06:16:41;;;;;;;35.23;2.50;;;19.00;56.10;;;;;;5012419;28;20187;-71
2023/05/09 06:19:07;;;;;;;35.50;3.20;;;18.90;57.10;;;;;;5009278;28;20189;-72
2023/05/09 06:21:33;;;;;;;33.43;2.40;;;18.60;59.10;;;;;;5011879;28;20195;-72
2023/05/09 06:23:58;;;;;;;34.13;3.10;;;19.10;59.10;;;;;;5011320;28;20174;-72
2023/05/09 06:26:25;;;;;;;32.20;2.90;;;19.10;55.20;;;;;;4993795;28;20453;-72
2023/05/09 06:28:50;;;;;;;32.90;2.40;;;19.00;55.30;;;;;;5007833;28;20190;-72
2023/05/09 06:31:16;;;;;;;33.47;2.67;;;19.00;56.10;;;;;;5011626;28;20523;-75
2023/05/09 06:33:41;;;;;;;31.40;2.10;;;18.20;59.70;;;;;;4994018;28;20190;-76
2023/05/09 06:36:07;;;;;;;31.23;2.17;;;18.00;62.10;;;;;;5012178;28;20168;-77
2023/05/09 06:38:34;;;;;;;30.43;1.83;;;17.90;62.80;;;;;;5012277;28;20600;-78
2023/05/09 06:40:59;;;;;;;30.83;2.17;;;17.70;67.50;;;;;;5010925;28;20202;-78
2023/05/09 06:43:26;;;;;;;47.97;3.30;;;17.60;68.00;;;;;;5010292;28;20503;-76
2023/05/09 06:45:51;;;;;;;29.17;2.00;;;17.40;70.70;;;;;;5004338;28;20186;-79
2023/05/09 06:48:17;;;;;;;31.80;2.97;;;16.90;76.60;;;;;;5011769;28;20421;-78
2023/05/09 06:50:42;;;;;;;30.90;2.37;;;17.10;79.40;;;;;;5011892;28;20291;-78
2023/05/09 06:53:08;;;;;;;30.33;2.87;;;17.70;75.10;;;;;;5010786;28;20171;-78
2023/05/09 06:55:34;;;;;;;29.13;2.03;;;18.70;64.20;;;;;;5009000;28;20188;-78
2023/05/09 06:57:59;;;;;;;29.00;1.97;;;17.90;67.10;;;;;;5009066;28;20183;-78
2023/05/09 07:00:25;;;;;;;29.47;2.30;;;18.20;66.50;;;;;;4999949;28;20226;-78
2023/05/09 07:02:51;;;;;;;30.10;2.50;;;18.50;62.90;;;;;;5010047;28;20547;-72
2023/05/09 07:05:16;;;;;;;29.87;2.20;;;19.20;59.20;;;;;;5011152;28;20415;-72
2023/05/09 07:07:42;;;;;;;30.47;2.67;;;19.60;55.10;;;;;;5016265;28;20267;-71
2023/05/09 07:10:08;;;;;;;29.50;2.20;;;19.00;57.20;;;;;;5010083;28;20232;-71
2023/05/09 07:12:34;;;;;;;32.03;2.20;;;19.00;57.60;;;;;;5010861;28;20194;-71
2023/05/09 07:15:00;;;;;;;32.53;2.27;;;19.30;57.20;;;;;;5010802;28;20951;-71
2023/05/09 07:17:25;;;;;;;31.43;3.07;;;19.80;53.80;;;;;;5011390;28;20209;-71
2023/05/09 07:19:51;;;;;;;28.77;2.40;;;19.80;53.50;;;;;;5010410;28;20402;-71
2023/05/09 07:22:17;;;;;;;31.30;3.40;;;20.00;53.20;;;;;;5014455;28;20176;-71
2023/05/09 07:24:45;;;;;;;27.17;2.33;;;20.00;52.80;;;;;;5011892;28;20187;-71
2023/05/09 07:27:11;;;;;;;26.07;2.03;;;20.10;51.10;;;;;;5003563;28;20181;-72
2023/05/09 07:29:37;;;;;;;26.80;2.93;;;20.30;50.70;;;;;;5004081;28;20450;-73
2023/05/09 07:32:03;;;;;;;29.57;2.73;;;20.50;51.90;;;;;;5013334;28;20522;-72
2023/05/09 07:34:28;;;;;;;28.33;2.30;;;20.80;50.30;;;;;;5012844;28;20525;-73
2023/05/09 07:36:54;;;;;;;31.23;2.70;;;21.00;49.30;;;;;;5014400;28;20638;-72
2023/05/09 07:39:20;;;;;;;27.70;2.17;;;20.30;47.60;;;;;;5016246;28;20186;-72
2023/05/09 07:41:45;;;;;;;28.73;2.03;;;20.50;48.30;;;;;;5008476;28;20206;-72
2023/05/09 07:44:11;;;;;;;31.10;2.23;;;20.70;48.70;;;;;;5009008;28;20187;-70
2023/05/09 07:46:39;;;;;;;30.63;1.90;;;21.00;47.80;;;;;;5015126;28;20195;-70
2023/05/09 07:49:05;;;;;;;38.13;2.20;;;21.00;47.50;;;;;;5014860;28;20255;-70
2023/05/09 07:51:31;;;;;;;29.87;2.13;;;20.80;47.10;;;;;;5015574;28;20467;-69
2023/05/09 07:53:56;;;;;;;30.00;2.50;;;20.30;47.80;;;;;;5013836;28;20247;-70
2023/05/09 07:56:22;;;;;;;29.80;1.97;;;20.50;51.20;;;;;;5015360;28;20496;-69
2023/05/09 07:58:48;;;;;;;29.80;2.00;;;20.50;47.90;;;;;;5013903;28;20183;-70
2023/05/09 08:01:14;;;;;;;62.73;2.60;;;20.60;49.90;;;;;;5012760;28;20214;-70
2023/05/09 08:03:40;;;;;;;57.87;2.23;;;20.80;47.40;;;;;;5012504;28;20449;-70
2023/05/09 08:06:06;;;;;;;58.50;2.50;;;21.00;47.10;;;;;;5013707;28;20426;-70
2023/05/09 08:08:31;;;;;;;57.70;2.80;;;21.30;47.20;;;;;;5013809;28;20185;-73
2023/05/09 08:10:57;;;;;;;58.20;2.80;;;21.50;45.20;;;;;;5014099;28;20494;-70
2023/05/09 08:13:23;;;;;;;65.40;2.57;;;21.40;46.80;;;;;;5012947;28;20185;-71
2023/05/09 08:15:49;;;;;;;57.10;2.30;;;21.40;46.10;;;;;;5013315;28;20247;-71
2023/05/09 08:18:14;;;;;;;58.10;2.80;;;21.50;43.70;;;;;;5014843;28;20466;-71
2023/05/09 08:20:40;;;;;;;55.03;2.57;;;21.40;43.40;;;;;;5018406;28;20266;-70
2023/05/09 08:23:06;;;;;;;54.20;2.40;;;21.60;44.80;;;;;;5014652;28;20188;-70
2023/05/09 08:25:32;;;;;;;52.97;2.60;;;21.50;44.20;;;;;;5013263;28;20519;-70
2023/05/09 08:27:57;;;;;;;52.17;3.00;;;21.50;44.50;;;;;;5013386;28;20652;-70
2023/05/09 08:30:23;;;;;;;52.53;2.60;;;21.70;43.30;;;;;;5014436;28;20287;-70
2023/05/09 08:32:49;;;;;;;53.03;2.83;;;21.60;43.90;;;;;;5009802;28;20185;-70
2023/05/09 08:35:14;;;;;;;52.00;2.50;;;21.70;44.40;;;;;;5004401;28;20265;-70
2023/05/09 08:37:40;;;;;;;62.40;2.80;;;21.60;46.50;;;;;;5013248;28;20315;-70
2023/05/09 08:40:06;;;;;;;61.10;2.30;;;21.40;43.60;;;;;;5015564;28;20292;-70
2023/05/09 08:42:34;;;;;;;60.97;2.30;;;20.90;45.30;;;;;;5012746;28;20579;-68
2023/05/09 08:45:05;;;;;;;61.80;2.67;;;21.00;46.70;;;;;;5012722;28;20865;-69
2023/05/09 08:47:34;;;;;;;63.13;2.63;;;21.00;44.80;;;;;;5005818;28;20511;-69
2023/05/09 08:50:02;;;;;;;62.80;2.30;;;21.30;45.90;;;;;;5009907;28;20474;-69
2023/05/09 08:52:32;;;;;;;29.93;1.87;;;21.30;45.60;;;;;;5010927;28;20471;-70
2023/05/09 08:54:59;;;;;;;31.80;2.20;;;21.30;44.80;;;;;;5011856;28;20448;-70
2023/05/09 08:57:28;;;;;;;31.70;2.10;;;21.10;45.10;;;;;;5012462;28;20516;-69
2023/05/09 08:59:55;;;;;;;38.97;2.10;;;21.30;45.20;;;;;;5014219;28;20482;-70
2023/05/09 09:02:21;;;;;;;41.80;2.43;;;21.20;43.20;;;;;;5009671;28;20445;-69
2023/05/09 09:04:46;;;;;;;31.33;1.70;;;21.40;46.30;;;;;;5010672;28;20821;-70
2023/05/09 09:07:14;;;;;;;32.57;2.23;;;21.30;42.90;;;;;;5012142;28;21938;-70
2023/05/09 09:09:45;;;;;;;32.00;2.17;;;21.60;47.40;;;;;;5013895;28;20239;-70
2023/05/09 09:12:12;;;;;;;35.47;2.63;;;22.00;42.40;;;;;;5011546;28;20449;-70
2023/05/09 09:14:46;;;;;;;31.80;1.90;;;22.00;43.40;;;;;;5014738;28;20477;-70
2023/05/09 09:17:17;;;;;;;32.00;1.90;;;22.20;43.70;;;;;;5002314;28;20443;-70
2023/05/09 09:19:45;;;;;;;32.17;2.13;;;22.60;43.90;;;;;;5006950;28;20443;-71
2023/05/09 09:22:15;;;;;;;34.93;2.23;;;22.10;40.20;;;;;;5015560;28;20450;-70
2023/05/09 09:24:40;;;;;;;35.77;2.27;;;21.80;42.30;;;;;;4993756;28;20441;-70
2023/05/09 09:27:07;;;;;;;33.90;2.00;;;21.90;39.70;;;;;;5011906;28;20446;-70
2023/05/09 09:29:33;;;;;;;34.40;1.80;;;21.80;43.30;;;;;;5012966;28;20223;-70
2023/05/09 09:32:02;;;;;;;34.27;2.10;;;22.00;42.10;;;;;;5013533;28;20467;-70
2023/05/09 09:34:27;;;;;;;33.80;2.17;;;21.80;40.60;;;;;;5012732;28;20422;-70
2023/05/09 09:36:53;;;;;;;34.57;1.90;;;22.20;41.50;;;;;;5013939;28;20438;-70
2023/05/09 09:39:20;;;;;;;34.80;2.00;;;22.30;40.40;;;;;;5012627;28;20897;-70
2023/05/09 09:41:46;;;;;;;36.10;2.20;;;22.50;39.30;;;;;;5012841;28;20203;-70
2023/05/09 09:44:14;;;;;;;35.30;2.00;;;22.50;40.40;;;;;;5011897;28;20407;-70
2023/05/09 09:46:49;;;;;;;52.20;1.97;;;22.40;40.10;;;;;;5013918;28;20937;-70
2023/05/09 09:49:17;;;;;;;52.30;1.80;;;22.50;39.70;;;;;;5010463;28;20517;-70
2023/05/09 09:51:43;;;;;;;31.67;2.00;;;22.30;40.60;;;;;;4993805;28;20952;-70
2023/05/09 09:54:11;;;;;;;31.47;2.07;;;22.40;39.20;;;;;;4993064;28;20424;-70
2023/05/09 09:56:52;;;;;;;29.43;1.70;;;22.80;38.80;;;;;;4993499;28;20494;-70
2023/05/09 09:59:23;;;;;;;31.07;1.67;;;22.50;39.60;;;;;;5014186;28;20419;-70
2023/05/09 10:01:59;;;;;;;32.00;2.33;;;22.30;40.90;;;;;;5013633;28;20455;-70
2023/05/09 10:04:27;;;;;;;16.27;1.83;;;22.50;40.90;;;;;;5014601;28;20414;-70
2023/05/09 10:07:05;;;;;;;69.00;2.50;;;22.70;39.70;;;;;;5016457;28;20475;-71
2023/05/09 10:09:31;;;;;;;68.80;2.40;;;22.90;37.70;;;;;;5019868;28;20432;-70
2023/05/09 10:12:02;;;;;;;69.60;2.17;;;23.70;36.20;;;;;;5016127;28;20463;-70
2023/05/09 10:14:30;;;;;;;70.67;1.97;;;23.50;36.50;;;;;;5015887;28;20399;-70
2023/05/09 10:16:56;;;;;;;75.47;1.93;;;23.40;35.60;;;;;;5028002;28;20943;-70
2023/05/09 10:19:28;;;;;;;67.37;2.23;;;24.10;36.50;;;;;;5018922;28;20919;-70
2023/05/09 10:22:01;;;;;;;21.90;1.73;;;24.30;35.50;;;;;;5015909;28;20428;-70
2023/05/09 10:24:53;;;;;;;22.73;2.10;;;24.10;35.40;;;;;;5032829;28;20410;-70
2023/05/09 10:27:21;;;;;;;23.40;1.80;;;24.40;34.00;;;;;;5021353;28;20418;-70
2023/05/09 10:30:11;;;;;;;22.50;1.60;;;24.20;34.90;;;;;;5017399;28;20472;-70
2023/05/09 10:32:48;;;;;;;19.10;2.00;;;24.50;34.70;;;;;;5014176;28;20404;-70
2023/05/09 10:35:16;;;;;;;11.50;1.90;;;24.20;33.90;;;;;;5016290;28;20395;-69
2023/05/09 10:37:46;;;;;;;12.90;1.80;;;24.50;34.70;;;;;;5012162;28;20416;-69
2023/05/09 10:40:14;;;;;;;13.30;1.90;;;24.90;32.30;;;;;;4995874;28;21011;-69
2023/05/09 10:42:44;;;;;;;7.00;2.10;;;24.80;34.10;;;;;;5010604;28;20437;-71
2023/05/09 10:45:11;;;;;;;7.53;1.67;;;24.60;33.80;;;;;;5011744;28;20538;-69
2023/05/09 10:47:38;;;;;;;7.40;2.17;;;24.70;32.60;;;;;;5012114;28;20411;-69
2023/05/09 10:50:06;;;;;;;5.90;1.70;;;24.90;34.50;;;;;;5011759;28;20876;-69
2023/05/09 10:52:32;;;;;;;3.63;1.40;;;25.40;33.40;;;;;;5006130;28;20876;-71
2023/05/09 10:55:00;;;;;;;4.67;1.67;;;25.30;34.00;;;;;;5012205;28;20419;-69
2023/05/09 10:57:28;;;;;;;2.80;1.50;;;25.60;31.40;;;;;;5013868;28;20431;-72
2023/05/09 10:59:55;;;;;;;3.80;1.80;;;25.90;30.00;;;;;;5015983;28;20546;-73
2023/05/09 11:02:22;;;;;;;5.50;1.90;;;26.10;32.60;;;;;;5017068;28;20419;-72
2023/05/09 11:05:08;;;;;;;1.50;1.37;;;26.60;30.40;;;;;;5015685;28;20502;-72
2023/05/09 11:07:34;;;;;;;2.00;1.60;;;26.80;29.00;;;;;;5016350;28;20753;-73
2023/05/09 11:10:13;;;;;;;1.40;1.40;;;26.40;28.50;;;;;;5016042;28;20534;-73
2023/05/09 11:12:59;;;;;;;1.70;1.40;;;26.90;28.80;;;;;;5015606;28;20549;-72
2023/05/09 11:15:26;;;;;;;1.30;1.27;;;26.70;28.00;;;;;;5016049;28;20415;-72
2023/05/09 11:18:09;;;;;;;5.10;1.40;;;26.50;29.90;;;;;;5012893;28;20432;-73
2023/05/09 11:20:41;;;;;;;3.73;1.70;;;26.70;28.20;;;;;;5014631;28;20455;-71
2023/05/09 11:23:09;;;;;;;5.70;1.30;;;26.70;30.40;;;;;;5013882;28;20478;-70
2023/05/09 11:25:34;;;;;;;18.47;1.40;;;27.70;28.30;;;;;;4997324;28;20962;-71
2023/05/09 11:28:01;;;;;;;32.57;1.63;;;28.50;25.10;;;;;;5016366;28;20434;-74
2023/05/09 11:30:44;;;;;;;31.20;1.50;;;29.10;26.70;;;;;;5013922;28;20297;-72
2023/05/09 11:33:23;;;;;;;32.37;1.33;;;29.50;23.90;;;;;;5012057;28;20439;-73
2023/05/09 11:36:28;;;;;;;30.57;1.57;;;30.20;24.20;;;;;;5012894;28;20519;-72
2023/05/09 11:39:10;;;;;;;47.70;2.03;;;29.90;22.50;;;;;;5002997;28;20443;-72
2023/05/09 11:41:41;;;;;;;41.87;1.60;;;31.40;19.70;;;;;;5015789;28;20457;-72
2023/05/09 11:44:20;;;;;;;43.43;1.70;;;30.90;20.10;;;;;;5012724;28;20459;-72
2023/05/09 11:46:47;;;;;;;47.17;1.60;;;29.40;23.10;;;;;;5013916;28;20434;-73
2023/05/09 11:49:14;;;;;;;49.20;1.77;;;29.30;22.50;;;;;;5013819;28;20538;-73
2023/05/09 11:51:40;;;;;;;50.30;1.73;;;29.50;22.20;;;;;;5012809;28;20563;-70
2023/05/09 11:54:07;;;;;;;36.00;1.60;;;29.70;21.20;;;;;;5018732;28;20427;-70
2023/05/09 11:56:35;;;;;;;40.87;1.60;;;30.90;21.00;;;;;;5014160;28;20458;-70
2023/05/09 11:59:00;;;;;;;37.73;1.60;;;31.20;23.40;;;;;;5014801;28;20414;-71
2023/05/09 12:01:30;;;;;;;27.77;1.90;;;31.50;20.40;;;;;;5014150;28;20455;-71
2023/05/09 12:03:57;;;;;;;22.37;1.30;;;30.80;21.40;;;;;;5013862;28;20228;-70
2023/05/09 12:06:24;;;;;;;23.57;1.53;;;31.40;20.00;;;;;;5012118;28;20479;-72
2023/05/09 12:08:52;;;;;;;31.87;1.47;;;31.10;21.60;;;;;;5013187;28;20447;-70
2023/05/09 12:11:17;;;;;;;24.73;1.40;;;30.00;21.10;;;;;;5013739;28;20830;-71
2023/05/09 12:13:47;;;;;;;22.10;1.30;;;30.70;23.40;;;;;;5010073;28;20443;-71
2023/05/09 12:16:15;;;;;;;23.60;1.60;;;30.80;20.00;;;;;;5013283;28;20599;-71
2023/05/09 12:18:48;;;;;;;29.80;1.50;;;31.40;19.50;;;;;;5013847;28;20436;-72
2023/05/09 12:21:14;;;;;;;34.20;1.60;;;30.90;20.90;;;;;;5015763;28;20465;-72
2023/05/09 12:23:40;;;;;;;40.77;1.83;;;30.10;22.00;;;;;;5013282;28;20416;-72
2023/05/09 12:26:05;;;;;;;40.47;1.77;;;29.10;21.70;;;;;;5013520;28;20435;-72
2023/05/09 12:28:32;;;;;;;40.13;1.70;;;28.60;23.00;;;;;;5014066;28;20188;-72
2023/05/09 12:30:58;;;;;;;44.50;1.63;;;27.50;24.70;;;;;;5016055;28;20208;-72
2023/05/09 12:33:24;;;;;;;47.80;1.73;;;26.90;26.20;;;;;;5012969;28;20420;-73
2023/05/09 12:36:05;;;;;;;48.37;1.87;;;26.50;26.70;;;;;;5012193;28;20181;-72
2023/05/09 12:38:31;;;;;;;46.30;1.87;;;26.20;26.50;;;;;;5013928;28;20412;-72
2023/05/09 12:41:05;;;;;;;46.00;1.93;;;26.00;25.50;;;;;;5013186;28;20463;-72